createdAt,value
2018-05-15T00:01:07.137Z,76.22
2018-05-15T00:03:34.735Z,76.60
2018-05-15T00:06:02.414Z,76.88
2018-05-15T00:08:29.996Z,76.76
2018-05-15T00:10:57.614Z,76.47
2018-05-15T00:13:25.197Z,76.48
2018-05-15T00:15:52.821Z,76.81
2018-05-15T00:18:20.481Z,76.77
2018-05-15T00:20:48.065Z,76.76
2018-05-15T00:23:15.693Z,76.76
2018-05-15T00:25:43.281Z,77.18
2018-05-15T00:28:11.091Z,77.37
2018-05-15T00:30:38.963Z,77.47
2018-05-15T00:33:06.757Z,77.74
2018-05-15T00:35:34.376Z,77.87
2018-05-15T00:38:02.493Z,77.91
2018-05-15T00:40:30.124Z,77.89
2018-05-15T00:42:57.718Z,77.65
2018-05-15T00:45:25.361Z,77.63
2018-05-15T00:47:53.521Z,77.19
2018-05-15T00:50:22.015Z,77.32
2018-05-15T00:52:49.628Z,77.67
2018-05-15T00:55:29.053Z,77.74
2018-05-15T00:57:56.632Z,77.67
2018-05-15T01:00:24.463Z,77.79
2018-05-15T01:02:52.081Z,77.80
2018-05-15T01:05:19.664Z,77.88
2018-05-15T01:07:47.283Z,78.32
2018-05-15T01:10:14.881Z,78.66
2018-05-15T01:12:42.505Z,78.87
2018-05-15T01:15:10.081Z,78.50
2018-05-15T01:17:37.716Z,78.89
2018-05-15T01:20:05.349Z,78.89
2018-05-15T01:22:32.936Z,78.65
2018-05-15T01:25:00.552Z,78.67
2018-05-15T01:27:28.141Z,79.00
2018-05-15T01:29:55.865Z,79.16
2018-05-15T01:32:23.496Z,78.95
2018-05-15T01:34:51.122Z,79.10
2018-05-15T01:37:18.700Z,78.94
2018-05-15T01:39:46.333Z,79.11
2018-05-15T01:42:13.951Z,79.72
2018-05-15T01:44:41.580Z,79.49
2018-05-15T01:47:09.161Z,79.31
2018-05-15T01:49:36.742Z,79.03
2018-05-15T01:52:04.364Z,79.04
2018-05-15T01:54:31.948Z,78.96
2018-05-15T01:56:59.781Z,79.67
2018-05-15T01:59:27.360Z,79.84
2018-05-15T02:01:55.003Z,79.98
2018-05-15T02:04:22.620Z,79.97
2018-05-15T02:06:50.233Z,80.12
2018-05-15T02:09:17.818Z,80.49
2018-05-15T02:11:45.450Z,80.50
2018-05-15T02:14:13.046Z,80.32
2018-05-15T02:16:40.661Z,80.65
2018-05-15T02:19:08.273Z,80.65
2018-05-15T02:21:36.113Z,80.45
2018-05-15T02:24:03.729Z,80.50
2018-05-15T02:26:31.365Z,81.15
2018-05-15T02:28:58.993Z,81.02
2018-05-15T02:31:26.578Z,80.59
2018-05-15T02:33:54.197Z,80.44
2018-05-15T02:36:21.782Z,80.49
2018-05-15T02:38:49.546Z,80.17
2018-05-15T02:41:17.481Z,80.31
2018-05-15T02:43:45.102Z,80.24
2018-05-15T02:46:12.704Z,80.23
2018-05-15T02:48:40.321Z,79.97
2018-05-15T02:51:07.896Z,79.96
2018-05-15T02:53:35.519Z,80.18
2018-05-15T02:56:03.287Z,80.63
2018-05-15T02:58:30.869Z,80.69
2018-05-15T03:00:58.476Z,80.87
2018-05-15T03:03:26.195Z,81.37
2018-05-15T03:05:53.839Z,81.40
2018-05-15T03:08:21.500Z,81.40
2018-05-15T03:10:49.142Z,81.28
2018-05-15T03:13:16.735Z,81.71
2018-05-15T03:15:44.369Z,81.96
2018-05-15T03:18:11.956Z,82.53
2018-05-15T03:20:39.578Z,82.29
2018-05-15T03:23:07.164Z,81.74
2018-05-15T03:25:35.357Z,81.38
2018-05-15T03:28:02.977Z,80.77
2018-05-15T03:30:30.557Z,80.73
2018-05-15T03:32:58.210Z,80.80
2018-05-15T03:35:26.272Z,81.37
2018-05-15T03:37:53.898Z,81.31
2018-05-15T03:40:21.489Z,81.15
2018-05-15T03:42:49.109Z,81.19
2018-05-15T03:45:16.725Z,80.88
2018-05-15T03:47:44.358Z,80.47
2018-05-15T03:50:11.949Z,80.75
2018-05-15T03:52:39.524Z,80.57
2018-05-15T03:55:07.148Z,80.85
2018-05-15T03:57:34.887Z,80.71
2018-05-15T04:00:02.654Z,80.57
2018-05-15T04:02:42.085Z,80.26
2018-05-15T04:05:21.514Z,81.15
2018-05-15T04:08:05.945Z,81.12
2018-05-15T04:10:33.525Z,81.25
2018-05-15T04:13:01.149Z,81.49
2018-05-15T04:15:28.728Z,81.44
2018-05-15T04:17:56.365Z,81.04
2018-05-15T04:20:23.951Z,80.66
2018-05-15T04:22:51.592Z,80.31
2018-05-15T04:25:19.180Z,80.01
2018-05-15T04:27:46.804Z,79.97
2018-05-15T04:30:14.601Z,79.56
2018-05-15T04:32:42.225Z,79.22
2018-05-15T04:35:09.905Z,79.02
2018-05-15T04:37:37.585Z,78.38
2018-05-15T04:40:05.197Z,77.98
2018-05-15T04:42:32.794Z,76.78
2018-05-15T04:45:01.127Z,76.15
2018-05-15T04:47:28.941Z,73.93
2018-05-15T04:49:56.684Z,72.39
2018-05-15T04:52:24.480Z,72.12
2018-05-15T04:54:52.238Z,70.41
2018-05-15T04:57:20.076Z,68.11
2018-05-15T04:59:47.666Z,63.42
2018-05-15T05:02:15.257Z,58.02
2018-05-15T05:04:42.991Z,55.39
2018-05-15T05:07:10.846Z,53.11
2018-05-15T05:09:38.472Z,52.00
2018-05-15T05:12:06.131Z,50.87
2018-05-15T05:14:33.708Z,50.95
2018-05-15T05:17:01.332Z,49.16
2018-05-15T05:19:28.913Z,47.37
2018-05-15T05:21:56.618Z,49.18
2018-05-15T05:24:24.243Z,47.07
2018-05-15T05:26:51.879Z,46.38
2018-05-15T05:29:19.615Z,45.36
2018-05-15T05:31:47.216Z,46.17
2018-05-15T05:34:14.843Z,43.95
2018-05-15T05:36:42.662Z,43.51
2018-05-15T05:39:10.289Z,43.86
2018-05-15T05:41:37.997Z,44.25
2018-05-15T05:44:05.817Z,45.98
2018-05-15T05:46:33.407Z,45.35
2018-05-15T05:49:01.101Z,44.32
2018-05-15T05:51:28.941Z,43.34
2018-05-15T05:53:56.606Z,43.67
2018-05-15T05:56:24.205Z,41.89
2018-05-15T05:58:51.922Z,42.07
2018-05-15T06:01:20.333Z,44.56
2018-05-15T06:03:47.916Z,43.53
2018-05-15T06:06:15.544Z,42.12
2018-05-15T06:08:43.288Z,42.71
2018-05-15T06:11:10.927Z,42.27
2018-05-15T06:13:38.556Z,39.15
2018-05-15T06:16:06.185Z,40.77
2018-05-15T06:18:33.773Z,38.31
2018-05-15T06:21:01.478Z,38.93
2018-05-15T06:23:29.047Z,38.60
2018-05-15T06:25:56.703Z,37.37
2018-05-15T06:28:24.323Z,39.01
2018-05-15T06:30:51.966Z,38.04
2018-05-15T06:33:20.303Z,34.98
2018-05-15T06:35:47.914Z,38.48
2018-05-15T06:38:15.537Z,39.30
2018-05-15T06:40:43.116Z,39.41
2018-05-15T06:43:10.759Z,39.75
2018-05-15T06:45:38.396Z,39.17
2018-05-15T06:48:08.113Z,40.61
2018-05-15T06:50:35.705Z,38.64
2018-05-15T06:53:03.326Z,37.18
2018-05-15T06:55:30.944Z,39.09
2018-05-15T06:57:58.531Z,37.68
2018-05-15T07:00:26.308Z,36.06
2018-05-15T07:02:53.890Z,36.75
2018-05-15T07:05:22.076Z,35.39
2018-05-15T07:07:49.790Z,36.04
2018-05-15T07:10:17.668Z,35.68
2018-05-15T07:12:45.735Z,37.12
2018-05-15T07:15:14.287Z,36.31
2018-05-15T07:17:43.048Z,36.32
2018-05-15T07:20:10.638Z,35.32
2018-05-15T07:22:38.261Z,36.96
2018-05-15T07:25:06.092Z,35.68
2018-05-15T07:27:33.873Z,36.89
2018-05-15T07:30:03.462Z,34.90
2018-05-15T07:32:32.290Z,35.07
2018-05-15T07:34:59.917Z,37.50
2018-05-15T07:37:27.719Z,36.65
2018-05-15T07:39:55.427Z,38.59
2018-05-15T07:42:23.094Z,36.66
2018-05-15T07:44:50.729Z,37.88
2018-05-15T07:47:18.387Z,34.71
2018-05-15T07:49:47.493Z,36.65
2018-05-15T07:52:15.254Z,34.68
2018-05-15T07:54:44.392Z,37.37
2018-05-15T07:57:12.248Z,37.16
2018-05-15T07:59:39.875Z,35.74
2018-05-15T08:02:07.722Z,35.91
2018-05-15T08:04:35.546Z,35.64
2018-05-15T08:07:03.915Z,37.51
2018-05-15T08:09:31.522Z,39.14
2018-05-15T08:11:59.784Z,36.53
2018-05-15T08:14:27.461Z,37.90
2018-05-15T08:16:55.341Z,38.63
2018-05-15T08:19:22.985Z,39.50
2018-05-15T08:21:50.809Z,40.41
2018-05-15T08:24:19.256Z,40.59
2018-05-15T08:26:47.072Z,38.64
2018-05-15T08:29:14.664Z,38.76
2018-05-15T08:31:42.246Z,39.15
2018-05-15T08:34:09.877Z,36.54
2018-05-15T08:36:37.494Z,38.46
2018-05-15T08:39:07.471Z,38.42
2018-05-15T08:41:35.262Z,38.98
2018-05-15T08:44:02.894Z,37.80
2018-05-15T08:46:31.288Z,37.61
2018-05-15T08:48:58.873Z,35.77
2018-05-15T08:51:26.558Z,37.69
2018-05-15T08:53:54.150Z,39.22
2018-05-15T08:56:21.809Z,37.33
2018-05-15T08:58:49.391Z,38.42
2018-05-15T09:01:17.082Z,37.71
2018-05-15T09:03:44.888Z,37.30
2018-05-15T09:06:12.481Z,40.69
2018-05-15T09:08:40.116Z,39.75
2018-05-15T09:11:07.717Z,40.83
2018-05-15T09:13:35.347Z,39.89
2018-05-15T09:16:04.673Z,41.85
2018-05-15T09:18:32.316Z,39.46
2018-05-15T09:21:07.859Z,38.95
2018-05-15T09:23:35.620Z,38.98
2018-05-15T09:26:03.471Z,37.56
2018-05-15T09:28:31.113Z,38.16
2018-05-15T09:30:58.702Z,39.82
2018-05-15T09:33:26.710Z,40.54
2018-05-15T09:35:54.337Z,39.39
2018-05-15T09:38:21.913Z,39.31
2018-05-15T09:40:49.591Z,37.71
2018-05-15T09:46:26.612Z,37.01
2018-05-15T09:48:54.541Z,37.71
2018-05-15T09:51:22.350Z,34.63
2018-05-15T09:53:49.957Z,36.33
2018-05-15T09:56:18.789Z,34.95
2018-05-15T09:58:46.396Z,36.01
2018-05-15T10:01:16.349Z,36.92
2018-05-15T10:03:44.071Z,34.95
2018-05-15T10:06:11.929Z,34.07
2018-05-15T10:08:39.592Z,35.11
2018-05-15T10:11:07.181Z,34.80
2018-05-15T10:13:36.297Z,35.64
2018-05-15T10:16:03.926Z,35.05
2018-05-15T10:18:32.134Z,34.20
2018-05-15T10:20:59.713Z,34.03
2018-05-15T10:23:28.524Z,33.99
2018-05-15T10:25:56.139Z,34.60
2018-05-15T10:28:24.623Z,36.58
2018-05-15T10:30:52.261Z,36.84
2018-05-15T10:33:19.949Z,33.79
2018-05-15T10:35:47.544Z,35.49
2018-05-15T10:38:15.157Z,32.88
2018-05-15T10:40:43.503Z,34.47
2018-05-15T10:43:11.093Z,31.94
2018-05-15T10:45:38.673Z,32.43
2018-05-15T10:48:06.313Z,33.43
2018-05-15T10:50:34.111Z,33.61
2018-05-15T10:53:01.678Z,33.20
2018-05-15T10:55:29.908Z,31.48
2018-05-15T10:57:57.488Z,31.33
2018-05-15T11:00:25.097Z,30.96
2018-05-15T11:02:52.886Z,30.44
2018-05-15T11:05:20.509Z,31.05
2018-05-15T11:07:48.127Z,31.58
2018-05-15T11:10:15.889Z,31.10
2018-05-15T11:12:43.759Z,32.44
2018-05-15T11:15:11.338Z,32.77
2018-05-15T11:17:38.921Z,32.85
2018-05-15T11:20:18.233Z,32.42
2018-05-15T11:22:57.627Z,31.55
2018-05-15T11:25:25.210Z,31.92
2018-05-15T11:27:52.830Z,31.93
2018-05-15T11:30:20.548Z,28.88
2018-05-15T11:32:48.184Z,32.99
2018-05-15T11:35:15.761Z,30.24
2018-05-15T11:37:43.389Z,29.52
2018-05-15T11:40:11.148Z,30.22
2018-05-15T11:42:38.720Z,30.39
2018-05-15T11:45:07.145Z,31.07
2018-05-15T11:47:34.958Z,32.13
2018-05-15T11:50:03.508Z,32.02
2018-05-15T11:52:32.072Z,32.79
2018-05-15T11:54:59.333Z,31.96
2018-05-15T11:57:27.668Z,32.49
2018-05-15T11:59:56.310Z,32.66
2018-05-15T12:02:24.429Z,32.22
2018-05-15T12:04:52.698Z,30.36
2018-05-15T12:07:22.225Z,31.98
2018-05-15T12:09:50.829Z,32.19
2018-05-15T12:12:18.514Z,31.06
2018-05-15T12:14:47.073Z,30.69
2018-05-15T12:17:14.693Z,31.19
2018-05-15T12:19:42.439Z,32.72
2018-05-15T12:22:10.187Z,32.13
2018-05-15T12:24:38.034Z,31.11
2018-05-15T12:27:06.033Z,31.68
2018-05-15T12:29:33.921Z,30.90
2018-05-15T12:32:02.354Z,30.16
2018-05-15T12:34:30.905Z,30.96
2018-05-15T12:37:01.483Z,32.07
2018-05-15T12:39:29.501Z,30.56
2018-05-15T12:41:57.242Z,29.92
2018-05-15T12:44:24.860Z,30.34
2018-05-15T12:46:52.775Z,30.07
2018-05-15T12:49:21.384Z,31.74
2018-05-15T12:51:50.198Z,30.43
2018-05-15T12:54:18.191Z,30.28
2018-05-15T12:56:46.069Z,30.31
2018-05-15T12:59:13.678Z,31.13
2018-05-15T13:01:41.652Z,30.06
2018-05-15T13:04:09.520Z,30.32
2018-05-15T13:06:37.138Z,32.36
2018-05-15T13:09:06.088Z,32.72
2018-05-15T13:11:33.760Z,29.84
2018-05-15T13:14:02.136Z,31.01
2018-05-15T13:16:29.871Z,30.35
2018-05-15T13:18:57.561Z,32.72
2018-05-15T13:21:25.229Z,32.71
2018-05-15T13:23:52.841Z,30.73
2018-05-15T13:26:21.197Z,31.93
2018-05-15T13:28:48.794Z,30.44
2018-05-15T13:31:17.155Z,31.05
2018-05-15T13:33:44.729Z,31.78
2018-05-15T13:36:12.408Z,30.16
2018-05-15T13:38:39.985Z,31.00
2018-05-15T13:41:07.661Z,29.17
2018-05-15T13:43:35.693Z,29.30
2018-05-15T13:46:03.565Z,32.06
2018-05-15T13:48:31.140Z,31.33
2018-05-15T13:50:58.728Z,31.87
2018-05-15T13:53:26.351Z,31.61
2018-05-15T13:55:54.794Z,30.66
2018-05-15T13:58:22.477Z,30.61
2018-05-15T14:00:50.246Z,29.35
2018-05-15T14:03:17.857Z,29.23
2018-05-15T14:05:45.496Z,29.84
2018-05-15T14:08:13.122Z,30.36
2018-05-15T14:10:40.733Z,30.10
2018-05-15T14:13:08.311Z,29.71
2018-05-15T14:15:35.921Z,29.86
2018-05-15T14:18:03.704Z,30.41
2018-05-15T14:20:31.274Z,31.21
2018-05-15T14:22:58.877Z,31.77
2018-05-15T14:25:26.744Z,31.54
2018-05-15T14:27:55.319Z,29.65
2018-05-15T14:30:23.018Z,30.95
2018-05-15T14:32:50.918Z,31.22
2018-05-15T14:35:18.489Z,30.60
2018-05-15T14:37:46.068Z,31.87
2018-05-15T14:40:13.844Z,32.44
2018-05-15T14:42:53.369Z,30.89
2018-05-15T14:45:20.948Z,29.97
2018-05-15T14:47:48.565Z,29.38
2018-05-15T14:50:16.181Z,30.37
2018-05-15T14:52:44.417Z,30.26
2018-05-15T14:55:12.030Z,29.27
2018-05-15T14:57:39.604Z,28.43
2018-05-15T15:00:07.216Z,30.39
2018-05-15T15:02:34.796Z,31.61
2018-05-15T15:05:02.369Z,31.35
2018-05-15T15:07:29.984Z,30.14
2018-05-15T15:09:58.301Z,30.18
2018-05-15T15:12:25.878Z,28.67
2018-05-15T15:14:53.547Z,30.05
2018-05-15T15:17:21.156Z,30.48
2018-05-15T15:19:48.800Z,30.90
2018-05-15T15:22:16.415Z,30.87
2018-05-15T15:24:43.981Z,31.74
2018-05-15T15:27:12.186Z,31.38
2018-05-15T15:29:39.800Z,31.08
2018-05-15T15:32:07.448Z,32.78
2018-05-15T15:34:35.029Z,32.91
2018-05-15T15:37:02.829Z,31.26
2018-05-15T15:39:30.408Z,32.08
2018-05-15T15:41:58.038Z,34.20
2018-05-15T15:44:25.798Z,33.56
2018-05-15T15:46:53.416Z,35.87
2018-05-15T15:49:21.796Z,34.91
2018-05-15T15:51:50.539Z,34.45
2018-05-15T15:54:18.113Z,34.83
2018-05-15T15:56:45.843Z,34.35
2018-05-15T15:59:13.462Z,35.17
2018-05-15T16:01:41.073Z,34.79
2018-05-15T16:04:08.659Z,34.86
2018-05-15T16:06:36.570Z,33.96
2018-05-15T16:09:04.862Z,34.86
2018-05-15T16:11:32.474Z,35.07
2018-05-15T16:14:00.056Z,35.03
2018-05-15T16:16:27.662Z,36.06
2018-05-15T16:18:56.118Z,35.45
2018-05-15T16:21:24.295Z,35.68
2018-05-15T16:23:51.919Z,36.74
2018-05-15T16:26:19.528Z,35.25
2018-05-15T16:28:47.154Z,36.86
2018-05-15T16:31:14.727Z,35.27
2018-05-15T16:33:42.305Z,36.30
2018-05-15T16:36:09.913Z,36.15
2018-05-15T16:38:38.598Z,36.71
2018-05-15T16:41:06.174Z,37.36
2018-05-15T16:43:34.544Z,37.19
2018-05-15T16:46:02.316Z,38.18
2018-05-15T16:48:29.930Z,36.71
2018-05-15T16:50:57.548Z,37.95
2018-05-15T16:53:25.329Z,39.18
2018-05-15T16:55:52.948Z,38.11
2018-05-15T16:58:20.745Z,38.00
2018-05-15T17:00:48.364Z,38.60
2018-05-15T17:03:15.996Z,37.84
2018-05-15T17:05:44.271Z,38.50
2018-05-15T17:08:12.306Z,40.16
2018-05-15T17:10:40.866Z,40.01
2018-05-15T17:13:08.487Z,39.21
2018-05-15T17:15:36.110Z,40.03
2018-05-15T17:18:03.897Z,40.03
2018-05-15T17:20:38.639Z,41.45
2018-05-15T17:23:11.941Z,41.92
2018-05-15T17:25:44.654Z,42.21
2018-05-15T17:28:12.371Z,41.01
2018-05-15T17:30:39.960Z,41.83
2018-05-15T17:33:07.584Z,40.73
2018-05-15T17:35:35.194Z,42.85
2018-05-15T17:38:02.812Z,43.24
2018-05-15T17:40:31.000Z,41.78
2018-05-15T17:42:58.694Z,42.73
2018-05-15T17:45:26.284Z,42.85
2018-05-15T17:47:53.925Z,43.70
2018-05-15T17:50:21.545Z,43.16
2018-05-15T17:52:49.194Z,43.49
2018-05-15T17:55:16.931Z,42.79
2018-05-15T17:57:46.491Z,42.64
2018-05-15T18:00:14.298Z,42.73
2018-05-15T18:02:41.921Z,42.30
2018-05-15T18:05:09.722Z,43.18
2018-05-15T18:07:37.553Z,43.95
2018-05-15T18:10:06.226Z,45.48
2018-05-15T18:12:33.996Z,44.95
2018-05-15T18:15:01.590Z,42.90
2018-05-15T18:17:30.090Z,43.30
2018-05-15T18:19:58.521Z,43.51
2018-05-15T18:22:27.012Z,43.81
2018-05-15T18:24:54.581Z,43.44
2018-05-15T18:27:22.713Z,43.56
2018-05-15T18:29:50.771Z,42.65
2018-05-15T18:32:20.091Z,42.72
2018-05-15T18:34:47.677Z,43.46
2018-05-15T18:37:15.476Z,43.41
2018-05-15T18:39:43.225Z,42.89
2018-05-15T18:42:11.762Z,43.73
2018-05-15T18:44:40.649Z,44.26
2018-05-15T18:47:09.517Z,43.51
2018-05-15T18:49:38.252Z,43.26
2018-05-15T18:52:06.219Z,43.59
2018-05-15T18:54:34.476Z,43.80
2018-05-15T18:57:02.674Z,43.42
2018-05-15T18:59:30.256Z,43.50
2018-05-15T19:01:58.252Z,43.44
2018-05-15T19:04:29.077Z,42.82
2018-05-15T19:06:57.961Z,43.03
2018-05-15T19:09:26.595Z,44.01
2018-05-15T19:11:55.413Z,43.17
2018-05-15T19:14:25.919Z,43.45
2018-05-15T19:16:56.893Z,44.17
2018-05-15T19:19:25.790Z,43.97
2018-05-15T19:21:54.522Z,45.53
2018-05-15T19:24:22.373Z,45.53
2018-05-15T19:26:51.306Z,43.73
2018-05-15T19:29:19.838Z,44.81
2018-05-15T19:31:54.064Z,43.76
2018-05-15T19:34:24.554Z,43.70
2018-05-15T19:36:53.361Z,44.66
2018-05-15T19:39:28.218Z,46.10
2018-05-15T19:41:57.403Z,44.65
2018-05-15T19:44:26.170Z,45.48
2018-05-15T19:46:55.066Z,45.80
2018-05-15T19:49:22.982Z,45.86
2018-05-15T19:51:50.693Z,45.61
2018-05-15T19:54:19.600Z,45.55
2018-05-15T19:56:48.189Z,46.19
2018-05-15T19:59:17.123Z,46.28
2018-05-15T20:01:45.475Z,46.56
2018-05-15T20:04:13.798Z,46.35
2018-05-15T20:06:41.454Z,46.90
2018-05-15T20:09:09.383Z,46.97
2018-05-15T20:11:38.225Z,47.10
2018-05-15T20:14:06.366Z,48.34
2018-05-15T20:16:37.752Z,47.37
2018-05-15T20:19:06.416Z,48.15
2018-05-15T20:21:34.190Z,47.94
2018-05-15T20:24:02.202Z,48.48
2018-05-15T20:26:30.588Z,48.37
2018-05-15T20:28:59.719Z,49.50
2018-05-15T20:31:29.133Z,49.53
2018-05-15T20:33:57.905Z,49.16
2018-05-15T20:36:27.418Z,49.76
2018-05-15T20:38:55.329Z,48.82
2018-05-15T20:41:24.861Z,48.05
2018-05-15T20:43:53.689Z,46.81
2018-05-15T20:46:23.494Z,47.76
2018-05-15T20:48:51.870Z,48.74
2018-05-15T20:51:20.909Z,48.04
2018-05-15T20:53:49.240Z,47.42
2018-05-15T20:56:18.507Z,47.40
2018-05-15T20:58:47.181Z,47.42
2018-05-15T21:01:15.909Z,47.29
2018-05-15T21:03:44.865Z,47.81
2018-05-15T21:06:12.970Z,47.54
2018-05-15T21:08:41.364Z,48.00
2018-05-15T21:11:09.819Z,48.45
2018-05-15T21:13:38.731Z,48.67
2018-05-15T21:16:08.213Z,49.00
2018-05-15T21:18:36.256Z,49.34
2018-05-15T21:21:05.085Z,50.16
2018-05-15T21:23:33.689Z,50.10
2018-05-15T21:26:01.831Z,50.26
2018-05-15T21:28:30.070Z,51.09
2018-05-15T21:30:58.604Z,50.42
2018-05-15T21:33:27.646Z,50.70
2018-05-15T21:35:55.989Z,51.09
2018-05-15T21:38:24.537Z,51.48
2018-05-15T21:40:53.106Z,52.51
2018-05-15T21:43:21.950Z,52.99
2018-05-15T21:45:49.894Z,52.63
2018-05-15T21:48:18.820Z,53.60
2018-05-15T21:50:47.502Z,53.77
2018-05-15T21:53:16.167Z,54.30
2018-05-15T21:55:44.802Z,54.61
2018-05-15T21:58:12.471Z,54.83
2018-05-15T22:00:40.665Z,55.84
2018-05-15T22:03:09.025Z,55.98
2018-05-15T22:05:37.359Z,56.80
2018-05-15T22:08:07.858Z,56.29
2018-05-15T22:10:36.248Z,56.19
2018-05-15T22:13:15.633Z,56.19
2018-05-15T22:15:55.719Z,56.63
2018-05-15T22:18:36.079Z,56.71
2018-05-15T22:21:16.481Z,56.72
2018-05-15T22:23:44.928Z,57.13
2018-05-15T22:26:12.577Z,57.19
2018-05-15T22:28:41.726Z,57.60
2018-05-15T22:31:10.885Z,58.00
2018-05-15T22:33:39.705Z,57.97
2018-05-15T22:36:08.104Z,57.98
2018-05-15T22:38:35.720Z,57.17
2018-05-15T22:41:03.292Z,57.34
2018-05-15T22:43:35.273Z,57.72
2018-05-15T22:46:02.893Z,58.45
2018-05-15T22:48:30.520Z,58.99
2018-05-15T22:50:58.188Z,60.66
2018-05-15T22:53:25.770Z,61.10
2018-05-15T22:55:54.225Z,61.66
2018-05-15T22:58:21.808Z,62.54
2018-05-15T23:00:49.395Z,61.91
2018-05-15T23:03:17.010Z,62.58
2018-05-15T23:05:44.639Z,63.29
2018-05-15T23:08:13.401Z,62.59
2018-05-15T23:10:41.208Z,62.75
2018-05-15T23:13:09.461Z,62.83
2018-05-15T23:15:37.119Z,62.80
2018-05-15T23:18:04.709Z,62.52
2018-05-15T23:20:32.293Z,62.61
2018-05-15T23:22:59.914Z,63.24
2018-05-15T23:25:27.509Z,62.84
2018-05-15T23:27:55.128Z,62.76
2018-05-15T23:30:22.746Z,62.09
2018-05-15T23:32:50.325Z,62.66
2018-05-15T23:35:17.984Z,62.22
2018-05-15T23:37:45.575Z,62.41
2018-05-15T23:40:13.195Z,63.07
2018-05-15T23:42:40.776Z,62.86
2018-05-15T23:45:08.989Z,64.00
2018-05-15T23:47:36.621Z,63.01
2018-05-15T23:50:04.653Z,63.52
2018-05-15T23:52:32.272Z,62.81
2018-05-15T23:54:59.850Z,62.51
2018-05-15T23:57:27.473Z,62.31
2018-05-15T23:59:55.093Z,62.37
